Palmer, Arkansas
Current Conditions -  °F | °C
As of 4:35 PM on Tuesday 21 Oct 2014 (Local Time) from KSGT Reporting Station
Clear Clear  
Wind Chill: 77°   Ceiling: Unl
Heat Index: 78°   Visibility: 10mi
Dew Point: 48°   Wind: 9mph
Humidity: 36%   Direction: 340°NNW
Pressure: 30.05"   Gusts: NA
Location:  34.5919°N, 91.1409°W
Report Text: KSGT 212135Z AUTO 34008KT 10SM CLR 25/09 A3005 RMK AO1
Loading
Personal Weather Stations






























Interactive Weather Map
Tropical Storm Tracking
New forecast layout! Learn more

10-Day Weather Forecast

Advertisements
Track Severe Weather on mobile